Time;durP1;ratioP1;P1;durP2;ratioP2;P2;SDS_P1;SDS_P2;PMS_P1;PMS_P2;Temp;Humidity;BMP_temperature;BMP_pressure;BME280_temperature;BME280_humidity;BME280_pressure;Samples;Min_cycle;Max_cycle;Signal;HPM_P1;HPM_P2
2022/09/05 00:00:21;;;;;;;;;;;;;;;21.77;28.79;98556.34;5018289;28;1435;-78
2022/09/05 00:03:05;;;;;;;;;;;;;;;21.71;29.13;98560.91;5018355;28;1005;-78
2022/09/05 00:05:30;;;;;;;;;;;;;;;21.85;28.69;98566.28;5034833;28;946;-78
2022/09/05 00:07:56;;;;;;;;;;;;;;;21.66;28.97;98552.91;5034613;28;892;-78
2022/09/05 00:10:21;;;;;;;;;;;;;;;22.22;28.50;98564.38;5034703;28;984;-79
2022/09/05 00:12:47;;;;;;;;;;;;;;;22.51;28.01;98555.28;5096985;28;1112;-79
2022/09/05 00:15:28;;;;;;;;;;;;;;;22.18;28.24;98555.16;5037678;28;1910;-78
2022/09/05 00:18:12;;;;;;;;;;;;;;;21.94;28.51;98551.56;5021005;28;1044;-78
2022/09/05 00:20:56;;;;;;;;;;;;;;;21.86;28.92;98555.75;5054068;28;996;-79
2022/09/05 00:23:27;;;;;;;;;;;;;;;21.65;28.91;98548.44;5037683;28;1252;-78
2022/09/05 00:25:55;;;;;;;;;;;;;;;22.15;28.80;98558.88;5054011;28;938;-78
2022/09/05 00:28:39;;;;;;;;;;;;;;;22.46;27.95;98556.59;5054455;28;929;-79
2022/09/05 00:31:13;;;;;;;;;;;;;;;22.23;28.29;98554.66;5054400;28;910;-78
2022/09/05 00:33:51;;;;;;;;;;;;;;;21.66;29.04;98549.25;5054023;28;989;-78
2022/09/05 00:36:19;;;;;;;;;;;;;;;21.55;29.42;98544.59;5054222;28;892;-78
2022/09/05 00:38:50;;;;;;;;;;;;;;;21.53;29.55;98546.25;5054140;28;937;-79
2022/09/05 00:41:16;;;;;;;;;;;;;;;21.98;28.85;98537.31;5037668;28;1561;-78
2022/09/05 00:43:42;;;;;;;;;;;;;;;22.33;28.37;98536.63;5037569;28;911;-79
2022/09/05 00:46:17;;;;;;;;;;;;;;;22.57;27.89;98542.19;5046911;28;899;-79
2022/09/05 00:48:45;;;;;;;;;;;;;;;22.65;27.78;98540.81;5057355;28;917;-79
2022/09/05 00:51:11;;;;;;;;;;;;;;;22.04;28.43;98547.72;5064376;28;1027;-79
2022/09/05 00:53:56;;;;;;;;;;;;;;;22.01;28.45;98544.94;5078511;28;926;-78
2022/09/05 00:56:21;;;;;;;;;;;;;;;21.87;29.01;98542.41;5096317;28;1019;-79
2022/09/05 00:58:46;;;;;;;;;;;;;;;21.93;28.89;98552.00;5096726;28;885;-79
2022/09/05 01:01:24;;;;;;;;;;;;;;;21.83;28.89;98551.75;5096431;28;1173;-79
2022/09/05 01:03:52;;;;;;;;;;;;;;;21.87;28.84;98550.91;5082257;28;914;-79
2022/09/05 01:06:21;;;;;;;;;;;;;;;22.12;28.64;98554.06;5082581;28;992;-79
2022/09/05 01:09:04;;;;;;;;;;;;;;;22.26;28.50;98542.44;5100534;28;845;-79
2022/09/05 01:11:48;;;;;;;;;;;;;;;21.98;28.81;98548.66;5100433;28;801;-79
2022/09/05 01:14:23;;;;;;;;;;;;;;;22.01;28.51;98542.91;5100011;28;1964;-79
2022/09/05 01:17:07;;;;;;;;;;;;;;;21.82;29.17;98550.16;5099929;28;942;-78
2022/09/05 01:19:35;;;;;;;;;;;;;;;21.74;29.20;98551.53;5100120;28;1056;-79
2022/09/05 01:22:04;;;;;;;;;;;;;;;21.41;29.56;98544.84;5100885;28;965;-78
2022/09/05 01:24:48;;;;;;;;;;;;;;;21.73;29.15;98549.94;5100413;28;919;-78
2022/09/05 01:27:32;;;;;;;;;;;;;;;22.05;29.05;98545.69;5100265;28;857;-79
2022/09/05 01:30:17;;;;;;;;;;;;;;;22.34;28.37;98549.56;5099924;28;1114;-79
2022/09/05 01:33:06;;;;;;;;;;;;;;;22.14;28.58;98545.94;5081478;28;1190;-79
2022/09/05 01:35:47;;;;;;;;;;;;;;;21.83;29.05;98536.81;5081663;28;1965;-79
2022/09/05 01:38:15;;;;;;;;;;;;;;;21.87;28.94;98531.06;5057376;28;1515;-78
2022/09/05 01:40:40;;;;;;;;;;;;;;;21.75;29.05;98529.66;5040802;28;1020;-79
2022/09/05 01:43:22;;;;;;;;;;;;;;;21.84;29.04;98539.19;5057308;28;895;-79
2022/09/05 01:45:50;;;;;;;;;;;;;;;21.73;29.08;98543.47;5057135;28;940;-79
2022/09/05 01:48:25;;;;;;;;;;;;;;;21.65;29.20;98537.13;5057466;28;1021;-79
2022/09/05 01:50:50;;;;;;;;;;;;;;;21.64;29.29;98541.19;5040930;28;911;-78
2022/09/05 01:53:34;;;;;;;;;;;;;;;22.12;28.86;98548.38;5057327;28;950;-78
2022/09/05 01:56:18;;;;;;;;;;;;;;;22.52;28.11;98537.03;5056793;28;1981;-79
2022/09/05 01:59:13;;;;;;;;;;;;;;;22.44;27.83;98535.59;5057125;28;963;-79
2022/09/05 02:01:38;;;;;;;;;;;;;;;22.03;28.37;98529.13;5000618;28;1269;-79
2022/09/05 02:04:04;;;;;;;;;;;;;;;21.81;28.95;98534.41;5017066;28;901;-79
2022/09/05 02:06:33;;;;;;;;;;;;;;;21.79;28.97;98531.19;5017116;28;981;-78
2022/09/05 02:08:59;;;;;;;;;;;;;;;21.78;28.73;98526.75;5033375;28;995;-79
2022/09/05 02:11:42;;;;;;;;;;;;;;;21.76;28.72;98526.41;5056811;28;1015;-79
2022/09/05 02:14:31;;;;;;;;;;;;;;;21.70;28.79;98533.78;5055957;28;1905;-79
2022/09/05 02:17:03;;;;;;;;;;;;;;;21.70;29.00;98527.31;5016931;28;954;-79
2022/09/05 02:19:29;;;;;;;;;;;;;;;21.76;29.15;98532.06;5000579;28;966;-79
2022/09/05 02:22:05;;;;;;;;;;;;;;;22.25;28.47;98534.38;5000452;28;980;-79
2022/09/05 02:24:37;;;;;;;;;;;;;;;22.31;28.46;98527.75;5000727;28;956;-79
2022/09/05 02:27:14;;;;;;;;;;;;;;;22.20;28.31;98526.38;5000097;28;1016;-79
2022/09/05 02:29:46;;;;;;;;;;;;;;;21.94;29.00;98530.94;5000192;28;2005;-79
2022/09/05 02:32:19;;;;;;;;;;;;;;;21.75;29.20;98532.50;5016612;28;929;-79
2022/09/05 02:34:54;;;;;;;;;;;;;;;21.79;29.01;98531.19;5000060;28;1989;-79
2022/09/05 02:37:31;;;;;;;;;;;;;;;21.74;29.42;98540.19;5020618;28;991;-79
2022/09/05 02:40:02;;;;;;;;;;;;;;;21.71;29.24;98535.41;5036250;28;875;-79
2022/09/05 02:42:46;;;;;;;;;;;;;;;21.57;29.75;98530.00;5036327;28;895;-79
2022/09/05 02:45:17;;;;;;;;;;;;;;;22.00;29.34;98540.50;5036156;28;1034;-79
2022/09/05 02:48:01;;;;;;;;;;;;;;;22.16;28.99;98531.31;5036177;28;1101;-79
2022/09/05 02:50:26;;;;;;;;;;;;;;;22.07;28.88;98531.84;5036172;28;888;-79
2022/09/05 02:52:52;;;;;;;;;;;;;;;21.94;29.25;98536.59;5023228;28;1036;-79
2022/09/05 02:55:36;;;;;;;;;;;;;;;21.84;29.25;98527.06;5098741;28;1909;-79
2022/09/05 02:58:07;;;;;;;;;;;;;;;21.59;29.75;98533.19;5098244;28;929;-79
2022/09/05 03:00:41;;;;;;;;;;;;;;;21.78;29.52;98534.47;5098279;28;1163;-79
2022/09/05 03:03:06;;;;;;;;;;;;;;;21.66;29.66;98520.91;5080303;28;970;-79
2022/09/05 03:05:50;;;;;;;;;;;;;;;21.70;29.56;98528.13;5098393;28;1152;-79
2022/09/05 03:08:19;;;;;;;;;;;;;;;22.16;29.40;98532.13;5080239;28;1201;-79
2022/09/05 03:11:03;;;;;;;;;;;;;;;22.20;28.95;98518.69;5098102;28;946;-78
2022/09/05 03:13:54;;;;;;;;;;;;;;;22.30;28.78;98520.50;5098384;28;967;-79
2022/09/05 03:16:31;;;;;;;;;;;;;;;22.06;29.27;98516.09;5015687;28;925;-79
2022/09/05 03:19:15;;;;;;;;;;;;;;;21.91;29.24;98524.06;5015669;28;974;-79
2022/09/05 03:21:46;;;;;;;;;;;;;;;21.77;29.08;98522.34;5015363;28;969;-79
2022/09/05 03:24:17;;;;;;;;;;;;;;;21.88;29.17;98527.78;5015101;28;973;-79
2022/09/05 03:26:48;;;;;;;;;;;;;;;21.79;29.28;98528.34;5015828;28;978;-79
2022/09/05 03:29:19;;;;;;;;;;;;;;;21.75;29.14;98533.28;4983219;28;1268;-78
2022/09/05 03:32:23;;;;;;;;;;;;;;;21.87;29.23;98534.69;5015581;28;827;-79
2022/09/05 03:35:01;;;;;;;;;;;;;;;21.75;29.43;98536.13;4957376;29;1914;-79
2022/09/05 03:37:32;;;;;;;;;;;;;;;22.06;29.30;98538.75;4957063;29;931;-79
2022/09/05 03:40:19;;;;;;;;;;;;;;;22.42;28.46;98538.06;4956691;29;1336;-79
2022/09/05 03:42:56;;;;;;;;;;;;;;;22.29;28.47;98541.56;4957050;29;993;-78
2022/09/05 03:45:34;;;;;;;;;;;;;;;21.87;29.24;98542.41;4956760;29;1029;-79
2022/09/05 03:48:02;;;;;;;;;;;;;;;21.71;29.65;98551.56;4956988;29;1037;-79
2022/09/05 03:50:28;;;;;;;;;;;;;;;21.66;29.32;98555.72;4957032;29;1053;-79
2022/09/05 03:52:56;;;;;;;;;;;;;;;21.68;29.43;98555.28;4970461;28;901;-79
2022/09/05 03:55:24;;;;;;;;;;;;;;;22.22;28.91;98557.91;4995512;28;1899;-79
2022/09/05 03:57:49;;;;;;;;;;;;;;;22.25;28.57;98566.34;4995734;28;1092;-79
2022/09/05 04:00:19;;;;;;;;;;;;;;;22.07;29.07;98558.19;4995250;28;1190;-79
2022/09/05 04:02:45;;;;;;;;;;;;;;;21.97;28.91;98555.56;4995376;28;951;-78
2022/09/05 04:05:12;;;;;;;;;;;;;;;21.64;29.65;98558.19;5030229;28;900;-79
2022/09/05 04:07:48;;;;;;;;;;;;;;;21.79;29.37;98559.50;5078797;28;960;-79
2022/09/05 04:10:28;;;;;;;;;;;;;;;21.62;29.55;98560.66;5062953;28;1598;-79
2022/09/05 04:12:56;;;;;;;;;;;;;;;21.63;29.80;98565.09;5096999;28;956;-79
2022/09/05 04:15:22;;;;;;;;;;;;;;;21.73;29.44;98566.13;5097003;28;1973;-79
2022/09/05 04:17:48;;;;;;;;;;;;;;;21.72;29.34;98571.00;5096898;28;905;-80
2022/09/05 04:20:15;;;;;;;;;;;;;;;21.94;29.58;98564.91;5079225;28;962;-80
2022/09/05 04:22:59;;;;;;;;;;;;;;;22.27;28.82;98565.91;5079545;28;1067;-80
2022/09/05 04:25:43;;;;;;;;;;;;;;;22.19;29.12;98570.94;5096861;28;1039;-79
2022/09/05 04:28:15;;;;;;;;;;;;;;;22.00;29.47;98568.84;5096651;28;810;-79
2022/09/05 04:30:40;;;;;;;;;;;;;;;21.93;29.38;98575.47;5097057;28;876;-79
2022/09/05 04:33:19;;;;;;;;;;;;;;;21.64;29.68;98569.50;5096575;28;904;-79
2022/09/05 04:36:03;;;;;;;;;;;;;;;21.77;29.31;98570.50;5078328;28;1979;-79
2022/09/05 04:38:39;;;;;;;;;;;;;;;21.82;29.88;98567.16;5096501;28;874;-79
2022/09/05 04:41:13;;;;;;;;;;;;;;;22.33;28.88;98575.53;5078316;28;935;-79
2022/09/05 04:43:42;;;;;;;;;;;;;;;22.19;28.89;98582.28;5078384;28;884;-79
2022/09/05 04:46:21;;;;;;;;;;;;;;;21.87;29.52;98576.41;5096788;28;936;-79
2022/09/05 04:48:59;;;;;;;;;;;;;;;21.82;29.80;98575.66;5096112;28;859;-78
2022/09/05 04:51:47;;;;;;;;;;;;;;;21.81;29.54;98579.72;5096242;28;880;-79
2022/09/05 04:54:16;;;;;;;;;;;;;;;21.82;29.58;98569.19;5078172;28;1914;-79
2022/09/05 04:56:43;;;;;;;;;;;;;;;21.69;29.70;98571.84;5096541;28;768;-80
2022/09/05 04:59:15;;;;;;;;;;;;;;;21.71;29.90;98574.22;5078255;28;1120;-80
2022/09/05 05:01:47;;;;;;;;;;;;;;;21.75;29.99;98577.81;5078125;28;1056;-79
2022/09/05 05:04:15;;;;;;;;;;;;;;;21.88;29.97;98584.47;5075226;28;1107;-79
2022/09/05 05:06:49;;;;;;;;;;;;;;;22.31;29.29;98590.13;5078717;28;836;-79
2022/09/05 05:09:19;;;;;;;;;;;;;;;22.35;29.01;98585.19;5053923;28;991;-80
2022/09/05 05:11:50;;;;;;;;;;;;;;;22.20;29.15;98583.06;5053568;28;1059;-79
2022/09/05 05:14:15;;;;;;;;;;;;;;;21.96;29.78;98579.44;5053758;28;1898;-79
2022/09/05 05:16:41;;;;;;;;;;;;;;;21.63;30.26;98587.72;5053967;28;1004;-79
2022/09/05 05:19:13;;;;;;;;;;;;;;;21.72;30.22;98587.97;5019181;28;1138;-80
2022/09/05 05:21:39;;;;;;;;;;;;;;;22.12;30.14;98590.09;5034074;28;814;-80
2022/09/05 05:24:14;;;;;;;;;;;;;;;22.31;29.49;98590.13;5030933;28;1048;-79
2022/09/05 05:26:42;;;;;;;;;;;;;;;22.12;29.80;98596.56;5017085;28;922;-80
2022/09/05 05:29:08;;;;;;;;;;;;;;;21.95;29.95;98595.66;5033579;28;888;-79
2022/09/05 05:31:35;;;;;;;;;;;;;;;21.90;29.96;98590.47;5017158;28;871;-80
2022/09/05 05:34:01;;;;;;;;;;;;;;;21.98;30.16;98591.16;5033522;28;1995;-79
2022/09/05 05:36:33;;;;;;;;;;;;;;;22.01;30.01;98591.06;5017324;28;1062;-79
2022/09/05 05:39:03;;;;;;;;;;;;;;;21.90;30.12;98593.31;5016995;28;1005;-79
2022/09/05 05:41:34;;;;;;;;;;;;;;;21.87;29.99;98590.56;5085549;28;1130;-79
2022/09/05 05:43:59;;;;;;;;;;;;;;;21.76;30.41;98588.72;5084202;28;1261;-79
2022/09/05 05:46:44;;;;;;;;;;;;;;;21.73;30.38;98583.91;5081624;28;1240;-80
2022/09/05 05:49:15;;;;;;;;;;;;;;;21.70;30.31;98596.09;5088474;28;1178;-79
2022/09/05 05:51:52;;;;;;;;;;;;;;;21.79;30.20;98587.84;5069688;28;1264;-80
2022/09/05 05:54:20;;;;;;;;;;;;;;;21.56;30.85;98596.38;5077270;28;1991;-79
2022/09/05 05:56:46;;;;;;;;;;;;;;;21.74;30.45;98594.00;5099989;28;937;-80
2022/09/05 05:59:30;;;;;;;;;;;;;;;22.22;30.32;98591.94;5099656;28;928;-80
2022/09/05 06:02:14;;;;;;;;;;;;;;;22.50;29.76;98587.72;5099433;28;1016;-79
2022/09/05 06:04:40;;;;;;;;;;;;;;;22.26;29.82;98604.00;5099282;28;944;-80
2022/09/05 06:07:09;;;;;;;;;;;;;;;22.11;30.35;98611.97;5099042;28;861;-79
2022/09/05 06:09:34;;;;;;;;;;;;;;;21.99;30.22;98612.59;5081732;28;1086;-80
2022/09/05 06:12:23;;;;;;;;;;;;;;;21.97;30.34;98598.88;5099571;28;1018;-80
2022/09/05 06:15:07;;;;;;;;;;;;;;;21.79;30.27;98615.38;5016767;28;1918;-79
2022/09/05 06:17:36;;;;;;;;;;;;;;;21.88;30.24;98612.00;5017193;28;1007;-80
2022/09/05 06:20:10;;;;;;;;;;;;;;;21.69;30.66;98617.16;5001142;28;936;-80
2022/09/05 06:22:39;;;;;;;;;;;;;;;21.81;30.22;98622.22;4998439;28;1104;-80
2022/09/05 06:25:14;;;;;;;;;;;;;;;21.79;30.29;98627.50;4988535;28;1322;-79
2022/09/05 06:27:58;;;;;;;;;;;;;;;21.83;30.23;98633.91;4996843;28;1250;-79
2022/09/05 06:30:24;;;;;;;;;;;;;;;21.67;30.61;98647.94;4996531;28;1218;-79
2022/09/05 06:33:05;;;;;;;;;;;;;;;21.77;30.19;98635.66;4988508;28;1247;-79
2022/09/05 06:35:49;;;;;;;;;;;;;;;21.64;30.32;98637.47;4996329;28;1922;-80
2022/09/05 06:38:25;;;;;;;;;;;;;;;22.12;30.63;98650.41;4996238;28;1378;-79
2022/09/05 06:41:12;;;;;;;;;;;;;;;22.36;29.86;98660.50;4988091;28;1297;-80
2022/09/05 06:43:37;;;;;;;;;;;;;;;21.99;30.15;98669.25;4996306;28;1286;-80
2022/09/05 06:46:11;;;;;;;;;;;;;;;22.02;30.19;98668.38;4996394;28;1278;-80
2022/09/05 06:48:40;;;;;;;;;;;;;;;21.62;30.97;98671.09;4988137;28;1438;-80
2022/09/05 06:51:14;;;;;;;;;;;;;;;21.87;30.45;98678.41;5013999;28;1281;-80
2022/09/05 06:53:52;;;;;;;;;;;;;;;21.75;30.29;98677.75;5084606;28;1264;-80
2022/09/05 06:56:24;;;;;;;;;;;;;;;21.80;30.25;98688.59;5043792;28;1991;-79
2022/09/05 06:58:55;;;;;;;;;;;;;;;22.02;29.89;98691.06;5045039;28;1445;-79
2022/09/05 07:01:25;;;;;;;;;;;;;;;21.70;30.58;98698.06;5042052;28;1320;-79
2022/09/05 07:03:54;;;;;;;;;;;;;;;21.60;30.58;98704.69;5030791;28;1491;-79
2022/09/05 07:06:30;;;;;;;;;;;;;;;21.81;30.28;98704.38;5039065;28;969;-79
2022/09/05 07:09:05;;;;;;;;;;;;;;;21.88;30.85;98703.44;5039086;28;953;-79
2022/09/05 07:11:49;;;;;;;;;;;;;;;22.40;29.86;98711.47;5051053;28;1220;-80
2022/09/05 07:14:24;;;;;;;;;;;;;;;22.49;29.33;98713.75;5043946;28;1979;-80
2022/09/05 07:16:50;;;;;;;;;;;;;;;22.06;30.02;98709.59;5025890;28;1246;-79
2022/09/05 07:19:28;;;;;;;;;;;;;;;21.93;30.02;98710.66;5027930;28;1285;-80
2022/09/05 07:21:59;;;;;;;;;;;;;;;21.83;30.39;98718.91;5015547;28;976;-80
2022/09/05 07:24:26;;;;;;;;;;;;;;;21.87;29.84;98712.38;5021886;28;1300;-79
2022/09/05 07:26:52;;;;;;;;;;;;;;;21.89;29.85;98709.91;5051959;28;799;-79
2022/09/05 07:29:18;;;;;;;;;;;;;;;21.74;30.15;98715.81;5062849;28;1304;-80
2022/09/05 07:31:44;;;;;;;;;;;;;;;21.81;29.98;98718.53;5079563;28;917;-80
2022/09/05 07:34:29;;;;;;;;;;;;;;;21.82;30.05;98717.31;5063132;28;1979;-79
2022/09/05 07:36:55;;;;;;;;;;;;;;;21.77;29.90;98714.97;5097176;28;1045;-80
2022/09/05 07:39:22;;;;;;;;;;;;;;;21.79;30.00;98712.50;5038315;28;1222;-79
2022/09/05 07:41:51;;;;;;;;;;;;;;;21.67;29.97;98704.59;5038321;28;938;-80
2022/09/05 07:44:16;;;;;;;;;;;;;;;21.70;29.85;98709.38;5022098;28;1224;-80
2022/09/05 07:46:42;;;;;;;;;;;;;;;21.65;30.29;98712.72;5055152;28;903;-80
2022/09/05 07:49:11;;;;;;;;;;;;;;;21.78;30.27;98710.88;5035037;28;1166;-80
2022/09/05 07:51:37;;;;;;;;;;;;;;;21.65;30.22;98712.72;5032647;28;1187;-79
2022/09/05 07:54:09;;;;;;;;;;;;;;;21.71;30.43;98716.69;5024053;28;1930;-80
2022/09/05 07:56:43;;;;;;;;;;;;;;;21.66;30.11;98705.84;5029736;28;1273;-80
2022/09/05 07:59:09;;;;;;;;;;;;;;;21.99;30.78;98700.44;5025931;28;1178;-80
2022/09/05 08:01:36;;;;;;;;;;;;;;;22.24;30.25;98698.00;5026718;28;1246;-80
2022/09/05 08:04:02;;;;;;;;;;;;;;;22.19;30.06;98704.16;5010776;28;1265;-79
2022/09/05 08:06:27;;;;;;;;;;;;;;;22.09;30.34;98693.78;5044360;28;1307;-80
2022/09/05 08:08:58;;;;;;;;;;;;;;;21.96;30.23;98695.63;5044451;28;1256;-80
2022/09/05 08:11:23;;;;;;;;;;;;;;;21.85;30.46;98693.75;5058934;28;1218;-80
2022/09/05 08:13:53;;;;;;;;;;;;;;;21.80;30.63;98694.25;5068562;28;1261;-80
2022/09/05 08:16:21;;;;;;;;;;;;;;;21.81;30.28;98687.38;5067015;28;1973;-80
2022/09/05 08:18:51;;;;;;;;;;;;;;;21.84;30.23;98697.84;5073034;28;1224;-79
2022/09/05 08:21:20;;;;;;;;;;;;;;;21.75;30.15;98705.28;5054329;28;962;-79
2022/09/05 08:23:45;;;;;;;;;;;;;;;21.81;30.22;98695.88;5038817;28;994;-80
2022/09/05 08:26:12;;;;;;;;;;;;;;;21.75;30.31;98696.78;5051192;28;1249;-80
2022/09/05 08:28:51;;;;;;;;;;;;;;;21.73;30.02;98697.22;5029851;28;1098;-79
2022/09/05 08:31:26;;;;;;;;;;;;;;;21.83;30.01;98690.56;5026831;28;1143;-80
2022/09/05 08:33:52;;;;;;;;;;;;;;;21.83;30.25;98690.56;5025093;28;1257;-79
2022/09/05 08:36:23;;;;;;;;;;;;;;;22.02;30.16;98696.72;5026175;28;1973;-79
2022/09/05 08:38:49;;;;;;;;;;;;;;;22.35;29.67;98701.44;5037228;28;1280;-79
2022/09/05 08:41:22;;;;;;;;;;;;;;;22.31;29.69;98694.22;5034051;28;1026;-80
2022/09/05 08:43:50;;;;;;;;;;;;;;;22.23;29.91;98701.28;5018008;28;998;-80
2022/09/05 08:46:26;;;;;;;;;;;;;;;22.04;29.92;98688.59;5034067;28;899;-79
2022/09/05 08:48:58;;;;;;;;;;;;;;;21.94;29.94;98692.44;5034211;28;910;-80
2022/09/05 08:52:02;;;;;;;;;;;;;;;21.78;30.15;98693.09;5024151;28;923;-79
2022/09/05 08:54:52;;;;;;;;;;;;;;;21.89;29.96;98692.91;4994527;28;1906;-79
2022/09/05 08:57:36;;;;;;;;;;;;;;;21.85;30.16;98695.81;4978754;28;842;-80
2022/09/05 09:00:05;;;;;;;;;;;;;;;21.60;30.77;98687.69;4995038;28;997;-79
2022/09/05 09:02:48;;;;;;;;;;;;;;;21.55;30.86;98696.69;4978680;28;1193;-80
2022/09/05 09:05:20;;;;;;;;;;;;;;;21.70;30.11;98697.25;4994598;28;871;-80
2022/09/05 09:07:51;;;;;;;;;;;;;;;21.77;30.41;98689.47;4994594;28;1128;-80
2022/09/05 09:10:22;;;;;;;;;;;;;;;21.78;29.96;98695.94;5014425;28;980;-80
2022/09/05 09:12:47;;;;;;;;;;;;;;;21.67;30.25;98696.09;4997649;28;939;-79
2022/09/05 09:15:15;;;;;;;;;;;;;;;21.73;30.15;98683.06;5014157;28;1902;-80
2022/09/05 09:17:41;;;;;;;;;;;;;;;21.72;30.02;98701.28;5014247;28;941;-80
2022/09/05 09:20:13;;;;;;;;;;;;;;;21.43;30.64;98694.44;5014028;28;928;-79
2022/09/05 09:22:40;;;;;;;;;;;;;;;22.02;30.31;98688.22;5014545;28;864;-80
2022/09/05 09:25:19;;;;;;;;;;;;;;;22.36;29.97;98686.00;5038342;28;980;-80
2022/09/05 09:28:03;;;;;;;;;;;;;;;22.08;29.73;98689.34;5065343;28;952;-80
2022/09/05 09:30:28;;;;;;;;;;;;;;;21.87;30.09;98684.06;5082104;28;1216;-79
2022/09/05 09:32:54;;;;;;;;;;;;;;;21.93;30.25;98676.66;5082274;28;881;-79
2022/09/05 09:35:22;;;;;;;;;;;;;;;21.84;30.17;98686.50;5082029;28;1975;-80
2022/09/05 09:37:49;;;;;;;;;;;;;;;21.93;30.02;98683.13;5078720;28;1102;-80
2022/09/05 09:40:21;;;;;;;;;;;;;;;21.88;30.03;98675.13;5099920;28;941;-80
2022/09/05 09:43:01;;;;;;;;;;;;;;;21.92;29.94;98684.38;5093226;28;1126;-79
2022/09/05 09:45:32;;;;;;;;;;;;;;;21.89;29.89;98682.38;5090210;28;1050;-80
2022/09/05 09:47:59;;;;;;;;;;;;;;;21.79;30.34;98672.81;5087541;28;1271;-79
2022/09/05 09:50:43;;;;;;;;;;;;;;;21.83;30.27;98679.25;5070879;28;1268;-79
2022/09/05 09:53:13;;;;;;;;;;;;;;;21.58;30.67;98684.50;5086453;28;1186;-80
2022/09/05 09:56:04;;;;;;;;;;;;;;;21.57;30.65;98680.88;5084420;28;2005;-79
2022/09/05 09:58:47;;;;;;;;;;;;;;;21.69;30.09;98685.13;4997894;28;946;-79
2022/09/05 10:01:20;;;;;;;;;;;;;;;21.77;30.07;98680.97;4997671;28;1286;-80
2022/09/05 10:03:51;;;;;;;;;;;;;;;21.90;29.69;98677.50;4981002;28;1060;-79
2022/09/05 10:06:26;;;;;;;;;;;;;;;21.79;29.87;98678.50;4996421;28;1234;-80
2022/09/05 10:08:54;;;;;;;;;;;;;;;21.69;30.15;98673.81;4996287;28;1207;-79
2022/09/05 10:11:19;;;;;;;;;;;;;;;21.69;30.31;98673.81;4990895;28;1227;-80
2022/09/05 10:13:47;;;;;;;;;;;;;;;21.73;29.98;98682.25;4996183;28;1301;-79
2022/09/05 10:16:25;;;;;;;;;;;;;;;21.77;29.87;98685.84;4987305;28;1926;-80
2022/09/05 10:18:53;;;;;;;;;;;;;;;21.68;29.96;98683.53;4996162;28;1266;-80
2022/09/05 10:21:28;;;;;;;;;;;;;;;21.81;29.91;98680.88;4996367;28;1238;-80
2022/09/05 10:24:11;;;;;;;;;;;;;;;21.75;30.01;98677.75;4980520;28;945;-80
2022/09/05 10:26:40;;;;;;;;;;;;;;;22.04;30.23;98671.59;4996878;28;1128;-80
2022/09/05 10:29:25;;;;;;;;;;;;;;;22.30;29.86;98670.75;4980071;28;1031;-79
2022/09/05 10:31:55;;;;;;;;;;;;;;;22.22;29.86;98680.59;4979819;28;1161;-79
2022/09/05 10:34:30;;;;;;;;;;;;;;;22.17;29.97;98675.44;4966783;28;1902;-80
2022/09/05 10:37:02;;;;;;;;;;;;;;;21.94;29.96;98666.94;5059897;28;928;-79
2022/09/05 10:39:28;;;;;;;;;;;;;;;21.88;30.12;98672.28;5060375;28;1058;-79
2022/09/05 10:41:57;;;;;;;;;;;;;;;21.79;30.27;98664.34;5060021;28;1021;-79
2022/09/05 10:44:25;;;;;;;;;;;;;;;21.78;30.05;98665.56;5077802;28;976;-79
2022/09/05 10:47:10;;;;;;;;;;;;;;;21.70;30.24;98664.06;5059775;28;963;-79
2022/09/05 10:49:43;;;;;;;;;;;;;;;21.76;30.15;98662.38;5059725;28;910;-79
2022/09/05 10:52:08;;;;;;;;;;;;;;;21.67;30.19;98650.78;5059934;28;965;-79
2022/09/05 10:54:34;;;;;;;;;;;;;;;21.68;30.31;98662.91;5077330;28;1901;-79
2022/09/05 10:57:04;;;;;;;;;;;;;;;21.79;29.80;98660.69;5077199;28;982;-79
2022/09/05 10:59:36;;;;;;;;;;;;;;;21.96;29.61;98658.78;5059586;28;926;-79
2022/09/05 11:02:06;;;;;;;;;;;;;;;21.68;29.91;98649.56;5059308;28;1548;-80
2022/09/05 11:04:32;;;;;;;;;;;;;;;21.74;29.87;98656.31;5042730;28;935;-80
2022/09/05 11:07:16;;;;;;;;;;;;;;;21.70;29.92;98651.94;5077301;28;901;-79
2022/09/05 11:10:00;;;;;;;;;;;;;;;21.61;30.19;98661.00;5077401;28;869;-79
2022/09/05 11:12:35;;;;;;;;;;;;;;;21.75;29.86;98666.41;5076931;28;913;-80
2022/09/05 11:15:03;;;;;;;;;;;;;;;21.91;29.51;98656.44;5077197;28;1909;-79
2022/09/05 11:17:32;;;;;;;;;;;;;;;21.78;29.79;98662.72;5059384;28;928;-80
2022/09/05 11:20:02;;;;;;;;;;;;;;;22.22;29.62;98652.25;5077461;28;896;-79
2022/09/05 11:22:27;;;;;;;;;;;;;;;22.44;29.18;98660.38;5059157;28;904;-79
2022/09/05 11:24:54;;;;;;;;;;;;;;;22.26;29.43;98649.38;5041318;28;906;-79
2022/09/05 11:27:19;;;;;;;;;;;;;;;22.10;29.57;98653.69;5058870;28;856;-79
2022/09/05 11:29:46;;;;;;;;;;;;;;;21.88;29.74;98652.44;5058933;28;1530;-79
2022/09/05 11:32:19;;;;;;;;;;;;;;;21.75;30.04;98651.44;5042223;28;1107;-79
2022/09/05 11:34:44;;;;;;;;;;;;;;;21.90;29.67;98660.50;5058687;28;1905;-80
2022/09/05 11:37:36;;;;;;;;;;;;;;;21.74;29.94;98655.53;5059263;28;1614;-80
2022/09/05 11:40:07;;;;;;;;;;;;;;;21.87;29.97;98650.06;4995116;28;972;-79
2022/09/05 11:42:38;;;;;;;;;;;;;;;21.80;30.09;98662.28;4978806;28;1096;-80
2022/09/05 11:45:13;;;;;;;;;;;;;;;21.68;30.18;98658.03;4994067;28;1043;-80
2022/09/05 11:47:57;;;;;;;;;;;;;;;21.79;29.76;98655.84;4962571;28;1137;-79
2022/09/05 11:50:34;;;;;;;;;;;;;;;21.75;29.84;98651.44;4979384;28;1124;-79
2022/09/05 11:53:18;;;;;;;;;;;;;;;21.73;29.62;98654.72;4979188;28;930;-79
2022/09/05 11:55:52;;;;;;;;;;;;;;;21.79;29.57;98644.50;4995731;28;1987;-80
2022/09/05 11:58:20;;;;;;;;;;;;;;;22.09;29.80;98646.41;4979308;28;1012;-80
2022/09/05 12:00:46;;;;;;;;;;;;;;;22.52;28.98;98650.47;4995495;28;1102;-79
2022/09/05 12:03:15;;;;;;;;;;;;;;;22.22;29.28;98648.63;4979382;28;1005;-80
2022/09/05 12:05:41;;;;;;;;;;;;;;;22.33;29.13;98643.56;4995760;28;1125;-79
2022/09/05 12:08:34;;;;;;;;;;;;;;;22.01;29.79;98638.44;4995543;28;950;-80
2022/09/05 12:10:59;;;;;;;;;;;;;;;21.97;30.01;98646.25;4937390;29;1253;-80
2022/09/05 12:13:30;;;;;;;;;;;;;;;21.78;30.14;98642.91;4937428;29;1093;-80
2022/09/05 12:15:56;;;;;;;;;;;;;;;21.90;29.99;98649.19;4932048;28;1962;-80
2022/09/05 12:18:27;;;;;;;;;;;;;;;21.61;30.14;98652.50;4998477;28;935;-80
2022/09/05 12:20:55;;;;;;;;;;;;;;;21.73;30.11;98646.22;5015003;28;1032;-80
2022/09/05 12:23:26;;;;;;;;;;;;;;;21.72;30.07;98655.97;4982113;28;944;-79
2022/09/05 12:25:52;;;;;;;;;;;;;;;21.76;29.89;98651.03;5014793;28;911;-80
2022/09/05 12:28:25;;;;;;;;;;;;;;;21.81;29.77;98656.22;4998468;28;1027;-80
2022/09/05 12:30:52;;;;;;;;;;;;;;;21.63;30.22;98647.22;4998590;28;1067;-80
2022/09/05 12:33:28;;;;;;;;;;;;;;;21.63;29.99;98657.75;4966549;28;1749;-80
2022/09/05 12:35:54;;;;;;;;;;;;;;;21.67;29.93;98659.28;4998356;28;1910;-80
2022/09/05 12:38:42;;;;;;;;;;;;;;;21.92;29.88;98650.38;5014890;28;918;-79
2022/09/05 12:41:08;;;;;;;;;;;;;;;22.31;29.55;98646.81;4998396;28;911;-80
2022/09/05 12:43:34;;;;;;;;;;;;;;;22.27;29.15;98646.09;4998104;28;872;-79
2022/09/05 12:46:15;;;;;;;;;;;;;;;22.01;29.70;98644.91;4998089;28;1156;-80
2022/09/05 12:48:49;;;;;;;;;;;;;;;21.93;29.77;98649.13;5069208;28;1048;-79
2022/09/05 12:51:15;;;;;;;;;;;;;;;21.89;29.88;98647.59;5076674;28;833;-79
2022/09/05 12:53:42;;;;;;;;;;;;;;;21.81;29.73;98642.06;5058546;28;1016;-79
2022/09/05 12:56:14;;;;;;;;;;;;;;;21.89;29.64;98639.09;5037591;28;1906;-79
2022/09/05 12:58:40;;;;;;;;;;;;;;;21.96;29.49;98638.94;5027885;28;1001;-79
2022/09/05 13:01:05;;;;;;;;;;;;;;;21.87;29.66;98645.19;5044150;28;1041;-79
2022/09/05 13:03:32;;;;;;;;;;;;;;;21.76;29.86;98639.72;5060573;28;930;-79
2022/09/05 13:06:08;;;;;;;;;;;;;;;21.81;29.87;98633.56;5044553;28;924;-79
2022/09/05 13:08:38;;;;;;;;;;;;;;;21.82;29.77;98640.03;5027483;28;875;-79
2022/09/05 13:11:05;;;;;;;;;;;;;;;21.74;29.66;98633.66;5044264;28;952;-79
2022/09/05 13:13:39;;;;;;;;;;;;;;;21.91;29.61;98628.09;5043948;28;1013;-79
2022/09/05 13:16:08;;;;;;;;;;;;;;;21.78;29.83;98625.91;5043765;28;1910;-79
2022/09/05 13:18:38;;;;;;;;;;;;;;;22.14;29.82;98636.63;5027639;28;925;-79
2022/09/05 13:21:10;;;;;;;;;;;;;;;22.49;28.87;98634.34;5043974;28;966;-79
2022/09/05 13:23:38;;;;;;;;;;;;;;;22.30;28.96;98638.75;5044128;28;910;-79
2022/09/05 13:26:24;;;;;;;;;;;;;;;22.01;29.60;98632.78;5060406;28;998;-80
2022/09/05 13:28:53;;;;;;;;;;;;;;;21.79;30.11;98630.34;5060378;28;980;-79
2022/09/05 13:31:39;;;;;;;;;;;;;;;21.87;29.98;98624.56;5044037;28;905;-79